Time;durP1;ratioP1;P1;durP2;ratioP2;P2;SDS_P1;SDS_P2;PMS_P1;PMS_P2;Temp;Humidity;BMP_temperature;BMP_pressure;BME280_temperature;BME280_humidity;BME280_pressure;Samples;Min_cycle;Max_cycle;Signal;HPM_P1;HPM_P2
2023/10/20 00:00:06;;;;;;;;;;;;;;;18.67;70.67;93901.03;4216478;28;5765;-62
2023/10/20 00:02:09;;;;;;;;;;;;;;;18.66;70.49;93884.19;4216921;28;6380;-60
2023/10/20 00:04:13;;;;;;;;;;;;;;;18.67;70.65;93879.63;4210479;28;5805;-61
2023/10/20 00:06:16;;;;;;;;;;;;;;;18.67;70.59;93876.97;4207922;28;7801;-61
2023/10/20 00:08:18;;;;;;;;;;;;;;;18.68;70.45;93854.44;4207559;28;5612;-60
2023/10/20 00:10:21;;;;;;;;;;;;;;;18.67;70.38;93851.00;4211916;28;5612;-61
2023/10/20 00:12:25;;;;;;;;;;;;;;;18.67;70.62;93851.00;4202002;28;5655;-60
2023/10/20 00:14:27;;;;;;;;;;;;;;;18.67;70.74;93850.19;4208872;28;6290;-61
2023/10/20 00:16:31;;;;;;;;;;;;;;;18.67;70.55;93853.66;4201174;28;5619;-61
2023/10/20 00:18:33;;;;;;;;;;;;;;;18.66;70.56;93849.41;4208343;28;5659;-61
2023/10/20 00:20:35;;;;;;;;;;;;;;;18.67;70.25;93851.00;4201549;28;5623;-61
2023/10/20 00:22:38;;;;;;;;;;;;;;;18.67;70.62;93852.88;4210982;28;5739;-61
2023/10/20 00:24:41;;;;;;;;;;;;;;;18.65;70.68;93850.53;4200749;28;5982;-61
2023/10/20 00:26:44;;;;;;;;;;;;;;;18.66;70.32;93853.97;4202994;28;5738;-61
2023/10/20 00:28:49;;;;;;;;;;;;;;;18.65;70.32;93841.72;4206892;28;5635;-61
2023/10/20 00:30:52;;;;;;;;;;;;;;;18.66;70.58;93829.91;4208119;28;5639;-61
2023/10/20 00:32:55;;;;;;;;;;;;;;;18.66;70.55;93837.94;4212508;28;5692;-61
2023/10/20 00:34:58;;;;;;;;;;;;;;;18.65;70.59;93809.59;4213544;28;5658;-60
2023/10/20 00:37:00;;;;;;;;;;;;;;;18.64;70.46;93806.16;4204871;28;5621;-60
2023/10/20 00:39:03;;;;;;;;;;;;;;;18.63;70.18;93821.38;4212752;28;5626;-61
2023/10/20 00:41:06;;;;;;;;;;;;;;;18.63;70.31;93805.31;4205481;28;5600;-62
2023/10/20 00:43:09;;;;;;;;;;;;;;;18.63;70.58;93793.84;4203493;28;5631;-62
2023/10/20 00:45:13;;;;;;;;;;;;;;;18.62;70.55;93805.66;4191382;28;5714;-61
2023/10/20 00:47:16;;;;;;;;;;;;;;;18.63;70.33;93793.84;4215274;28;5829;-61
2023/10/20 00:49:20;;;;;;;;;;;;;;;18.63;70.50;93767.88;4210145;28;5862;-61
2023/10/20 00:51:25;;;;;;;;;;;;;;;18.62;69.99;93771.66;4207679;28;5256;-61
2023/10/20 00:53:28;;;;;;;;;;;;;;;18.60;70.30;93768.50;4208602;28;7806;-62
2023/10/20 00:55:31;;;;;;;;;;;;;;;18.60;70.07;93746.31;4208762;28;5630;-62
2023/10/20 00:57:34;;;;;;;;;;;;;;;18.59;70.25;93753.56;4215262;28;5628;-62
2023/10/20 00:59:37;;;;;;;;;;;;;;;18.58;70.34;93760.03;4209283;28;6329;-62
2023/10/20 01:01:42;;;;;;;;;;;;;;;18.59;70.18;93756.25;4215187;28;5612;-62
2023/10/20 01:03:44;;;;;;;;;;;;;;;18.58;69.96;93743.97;4210899;28;5687;-62
2023/10/20 01:05:48;;;;;;;;;;;;;;;18.57;70.35;93753.09;4213649;28;5104;-61
2023/10/20 01:07:51;;;;;;;;;;;;;;;18.57;70.25;93750.44;4211740;28;5795;-61
2023/10/20 01:10:00;;;;;;;;;;;;;;;18.55;69.95;93733.88;4207958;28;5710;-61
2023/10/20 01:12:03;;;;;;;;;;;;;;;18.53;69.75;93736.09;4216044;28;5612;-62
2023/10/20 01:14:06;;;;;;;;;;;;;;;18.50;69.92;93731.38;4208753;28;7097;-61
2023/10/20 01:16:09;;;;;;;;;;;;;;;18.49;70.15;93695.03;4208923;28;5705;-61
2023/10/20 01:18:14;;;;;;;;;;;;;;;18.44;69.61;93691.72;4212021;28;5834;-62
2023/10/20 01:20:17;;;;;;;;;;;;;;;18.39;70.00;93690.03;4212452;28;7234;-62
2023/10/20 01:22:20;;;;;;;;;;;;;;;18.40;70.00;93672.88;4207065;28;5742;-62
2023/10/20 01:24:25;;;;;;;;;;;;;;;18.42;70.10;93664.53;4214666;28;5703;-61
2023/10/20 01:26:29;;;;;;;;;;;;;;;18.45;70.03;93670.00;4205126;28;5757;-61
2023/10/20 01:28:32;;;;;;;;;;;;;;;18.47;69.77;93669.72;4208884;28;5601;-62
2023/10/20 01:30:35;;;;;;;;;;;;;;;18.47;69.94;93662.47;4214451;28;5639;-62
2023/10/20 01:32:38;;;;;;;;;;;;;;;18.48;69.79;93664.06;4214333;28;6640;-61
2023/10/20 01:34:40;;;;;;;;;;;;;;;18.49;69.99;93654.13;4209988;28;5620;-61
2023/10/20 01:37:04;;;;;;;;;;;;;;;18.49;70.08;93638.88;4206600;28;6297;-61
2023/10/20 01:39:29;;;;;;;;;;;;;;;18.50;70.14;93640.44;4212318;28;5780;-62
2023/10/20 01:41:52;;;;;;;;;;;;;;;18.51;69.69;93623.28;4205784;28;5702;-61
2023/10/20 01:43:53;;;;;;;;;;;;;;;18.51;69.95;93623.28;4214015;28;5615;-62
2023/10/20 01:45:56;;;;;;;;;;;;;;;18.51;69.81;93603.78;4215531;28;6395;-62
2023/10/20 01:47:59;;;;;;;;;;;;;;;18.52;70.03;93605.34;4216693;28;5633;-61
2023/10/20 01:50:02;;;;;;;;;;;;;;;18.52;70.08;93616.03;4215961;28;5824;-61
2023/10/20 01:52:07;;;;;;;;;;;;;;;18.52;70.04;93587.41;4213990;28;7319;-61
2023/10/20 01:54:10;;;;;;;;;;;;;;;18.52;70.10;93600.78;4208957;28;5734;-60
2023/10/20 01:56:14;;;;;;;;;;;;;;;18.52;70.13;93602.66;4213184;28;5600;-61
2023/10/20 01:58:18;;;;;;;;;;;;;;;18.52;69.63;93579.38;4214594;28;5656;-61
2023/10/20 02:00:19;;;;;;;;;;;;;;;18.51;69.97;93575.13;4208518;28;5761;-61
2023/10/20 02:02:22;;;;;;;;;;;;;;;18.50;69.71;93570.13;4215869;28;5838;-61
2023/10/20 02:04:26;;;;;;;;;;;;;;;18.48;69.62;93562.41;4200934;28;5654;-61
2023/10/20 02:06:28;;;;;;;;;;;;;;;18.42;69.76;93568.25;4213512;28;5620;-61
2023/10/20 02:08:32;;;;;;;;;;;;;;;18.41;69.82;93582.72;4213622;28;5093;-61
2023/10/20 02:10:35;;;;;;;;;;;;;;;18.42;69.53;93555.66;4211307;28;5621;-61
2023/10/20 02:12:39;;;;;;;;;;;;;;;18.40;69.75;93549.84;4218711;28;5699;-61
2023/10/20 02:14:41;;;;;;;;;;;;;;;18.41;69.70;93546.06;4204604;28;5630;-62
2023/10/20 02:16:44;;;;;;;;;;;;;;;18.44;69.84;93533.94;4214587;28;5808;-61
2023/10/20 02:18:46;;;;;;;;;;;;;;;18.45;69.77;93527.47;4218911;28;5616;-62
2023/10/20 02:21:01;;;;;;;;;;;;;;;18.45;69.68;93514.88;4217787;28;5898;-62
2023/10/20 02:23:04;;;;;;;;;;;;;;;18.47;69.50;93493.19;4217957;28;5624;-62
2023/10/20 02:25:08;;;;;;;;;;;;;;;18.47;69.79;93485.97;4218996;28;5636;-62
2023/10/20 02:27:11;;;;;;;;;;;;;;;18.47;69.48;93459.22;4214390;28;5623;-62
2023/10/20 02:29:17;;;;;;;;;;;;;;;18.47;69.78;93445.84;4219722;28;5629;-62
2023/10/20 02:31:20;;;;;;;;;;;;;;;18.49;69.67;93424.91;4211789;28;6485;-62
2023/10/20 02:33:23;;;;;;;;;;;;;;;18.49;69.47;93418.75;4207221;28;5726;-62
2023/10/20 02:35:26;;;;;;;;;;;;;;;18.49;69.47;93408.84;4210063;28;5612;-62
2023/10/20 02:37:27;;;;;;;;;;;;;;;18.50;69.59;93410.41;4214343;28;5654;-62
2023/10/20 02:39:31;;;;;;;;;;;;;;;18.49;69.64;93398.16;4202100;28;5631;-62
2023/10/20 02:41:34;;;;;;;;;;;;;;;18.50;69.59;93397.03;4210881;28;5707;-61
2023/10/20 02:43:36;;;;;;;;;;;;;;;18.50;69.87;93399.72;4212320;28;5173;-61
2023/10/20 02:45:47;;;;;;;;;;;;;;;18.51;69.79;93406.63;4219110;28;5604;-62
2023/10/20 02:47:51;;;;;;;;;;;;;;;18.50;69.69;93407.75;4208056;28;5798;-61
2023/10/20 02:49:56;;;;;;;;;;;;;;;18.50;69.50;93401.59;4206863;28;5727;-61
2023/10/20 02:51:59;;;;;;;;;;;;;;;18.51;69.58;93403.16;4219234;28;5722;-61
2023/10/20 02:54:01;;;;;;;;;;;;;;;18.50;69.60;93390.91;4210512;28;5107;-60
2023/10/20 02:56:11;;;;;;;;;;;;;;;18.50;69.62;93394.38;4205638;28;6306;-60
2023/10/20 02:58:14;;;;;;;;;;;;;;;18.51;69.56;93390.56;4210691;28;5622;-61
2023/10/20 03:00:18;;;;;;;;;;;;;;;18.49;69.59;93382.09;4216617;28;5826;-61
2023/10/20 03:02:22;;;;;;;;;;;;;;;18.51;69.61;93390.56;4218690;28;5620;-60
2023/10/20 03:04:26;;;;;;;;;;;;;;;18.50;69.56;93389.00;4210321;28;5619;-60
2023/10/20 03:06:29;;;;;;;;;;;;;;;18.53;69.37;93382.22;4218842;28;5872;-60
2023/10/20 03:08:32;;;;;;;;;;;;;;;18.52;69.65;93381.44;4210201;28;7671;-61
2023/10/20 03:10:35;;;;;;;;;;;;;;;18.52;69.72;93386.00;4218028;28;5698;-61
2023/10/20 03:12:38;;;;;;;;;;;;;;;18.53;69.82;93382.22;4210225;28;5830;-61
2023/10/20 03:14:41;;;;;;;;;;;;;;;18.53;69.53;93419.66;4211863;28;6448;-61
2023/10/20 03:16:44;;;;;;;;;;;;;;;18.53;69.75;93400.94;4217817;28;5644;-61
2023/10/20 03:18:49;;;;;;;;;;;;;;;18.53;69.55;93401.72;4207861;28;5800;-61
2023/10/20 03:20:52;;;;;;;;;;;;;;;18.53;69.76;93407.09;4212733;28;5604;-61
2023/10/20 03:22:55;;;;;;;;;;;;;;;18.53;69.77;93403.63;4206943;28;5631;-61
2023/10/20 03:24:58;;;;;;;;;;;;;;;18.53;69.70;93417.78;4204310;28;5616;-61
2023/10/20 03:27:00;;;;;;;;;;;;;;;18.53;69.58;93423.13;4206042;28;5600;-61
2023/10/20 03:29:04;;;;;;;;;;;;;;;18.54;69.94;93411.31;4218208;28;5834;-60
2023/10/20 03:31:08;;;;;;;;;;;;;;;18.54;69.76;93397.94;4218428;28;5788;-61
2023/10/20 03:33:13;;;;;;;;;;;;;;;18.54;69.35;93397.16;4218118;28;5616;-60
2023/10/20 03:35:18;;;;;;;;;;;;;;;18.54;69.59;93392.59;4211345;28;7045;-61
2023/10/20 03:37:21;;;;;;;;;;;;;;;18.53;69.47;93377.66;4201161;28;5627;-61
2023/10/20 03:39:24;;;;;;;;;;;;;;;18.54;69.61;93354.38;4201243;28;5639;-61
2023/10/20 03:41:29;;;;;;;;;;;;;;;18.52;69.65;93338.66;4209154;28;5616;-61
2023/10/20 03:43:32;;;;;;;;;;;;;;;18.51;69.65;93328.28;4209730;28;5809;-62
2023/10/20 03:45:41;;;;;;;;;;;;;;;18.50;69.89;93305.31;4210182;28;5651;-62
2023/10/20 03:47:45;;;;;;;;;;;;;;;18.48;69.48;93305.66;4214231;28;5699;-61
2023/10/20 03:49:50;;;;;;;;;;;;;;;18.45;69.81;93326.91;4200346;28;5726;-61
2023/10/20 03:51:54;;;;;;;;;;;;;;;18.47;69.40;93328.16;4209865;28;5709;-61
2023/10/20 03:53:57;;;;;;;;;;;;;;;18.48;69.82;93327.03;4201149;28;6329;-60
2023/10/20 03:56:01;;;;;;;;;;;;;;;18.51;69.64;93330.94;4209086;28;5658;-61
2023/10/20 03:58:04;;;;;;;;;;;;;;;18.51;69.72;93329.06;4211575;28;5802;-61
2023/10/20 04:00:17;;;;;;;;;;;;;;;18.51;69.71;93328.28;4216232;28;5714;-61
2023/10/20 04:02:21;;;;;;;;;;;;;;;18.52;69.67;93349.34;4201129;28;5729;-61
2023/10/20 04:04:24;;;;;;;;;;;;;;;18.53;69.53;93361.59;4208765;28;5620;-61
2023/10/20 04:06:27;;;;;;;;;;;;;;;18.53;69.81;93353.59;4209373;28;5612;-61
2023/10/20 04:08:32;;;;;;;;;;;;;;;18.53;69.67;93366.97;4217504;28;5604;-61
2023/10/20 04:10:35;;;;;;;;;;;;;;;18.53;69.44;93355.47;4201615;28;5655;-60
2023/10/20 04:12:41;;;;;;;;;;;;;;;18.54;69.42;93346.34;4208382;28;5611;-61
2023/10/20 04:14:44;;;;;;;;;;;;;;;18.53;69.35;93361.59;4202978;28;5623;-61
2023/10/20 04:16:47;;;;;;;;;;;;;;;18.53;69.46;93372.31;4207170;28;5638;-61
2023/10/20 04:18:50;;;;;;;;;;;;;;;18.53;69.53;93382.22;4211837;28;5795;-61
2023/10/20 04:20:57;;;;;;;;;;;;;;;18.53;69.69;93401.72;4206231;28;5089;-61
2023/10/20 04:23:00;;;;;;;;;;;;;;;18.54;69.64;93399.84;4209117;28;5730;-61
2023/10/20 04:25:10;;;;;;;;;;;;;;;18.54;69.78;93405.97;4205564;28;5613;-61
2023/10/20 04:27:21;;;;;;;;;;;;;;;18.53;69.70;93408.97;4211890;28;5619;-61
2023/10/20 04:29:34;;;;;;;;;;;;;;;18.54;69.80;93413.22;4216700;28;5700;-60
2023/10/20 04:48:20;;;;;;;;;;;;;;;18.48;69.52;93395.81;4165378;28;5767;-61
2023/10/20 04:57:52;;;;;;;;;;;;;;;18.47;69.66;93378.97;4134557;28;5623;-62
2023/10/20 05:00:29;;;;;;;;;;;;;;;18.44;69.33;93371.56;4148940;28;5417;-62
2023/10/20 05:02:32;;;;;;;;;;;;;;;18.43;69.68;93369.22;4148879;28;7681;-60
2023/10/20 05:04:40;;;;;;;;;;;;;;;18.40;69.44;93359.19;4141728;28;5604;-60
2023/10/20 05:06:54;;;;;;;;;;;;;;;18.39;69.73;93353.06;4148872;28;5619;-60
2023/10/20 05:08:57;;;;;;;;;;;;;;;18.37;69.48;93339.25;4147364;28;5739;-60
2023/10/20 05:11:00;;;;;;;;;;;;;;;18.37;69.86;93365.97;4141543;28;5980;-61
2023/10/20 05:13:05;;;;;;;;;;;;;;;18.37;69.72;93379.34;4141138;28;5626;-60
2023/10/20 05:15:10;;;;;;;;;;;;;;;18.40;69.97;93391.28;4142784;28;5822;-61
2023/10/20 05:17:15;;;;;;;;;;;;;;;18.40;69.53;93405.44;4140502;28;5710;-61
2023/10/20 05:19:18;;;;;;;;;;;;;;;18.42;69.65;93407.78;4116177;28;5662;-60
2023/10/20 05:21:20;;;;;;;;;;;;;;;18.43;69.83;93406.66;4148054;28;6197;-60
2023/10/20 05:23:23;;;;;;;;;;;;;;;18.42;69.83;93413.13;4159192;28;5917;-60
2023/10/20 05:25:25;;;;;;;;;;;;;;;18.42;69.92;93421.16;4162719;28;6249;-60
2023/10/20 05:27:28;;;;;;;;;;;;;;;18.42;69.55;93424.59;4160584;28;5676;-61
2023/10/20 05:29:32;;;;;;;;;;;;;;;18.42;69.82;93440.66;4162631;28;5714;-61
2023/10/20 05:31:35;;;;;;;;;;;;;;;18.42;69.61;93439.88;4165031;28;5806;-60
2023/10/20 05:33:38;;;;;;;;;;;;;;;18.44;69.44;93433.09;4212645;28;5619;-61
2023/10/20 05:35:41;;;;;;;;;;;;;;;18.43;69.85;93441.44;4211415;28;5944;-61
2023/10/20 05:37:44;;;;;;;;;;;;;;;18.43;69.73;93446.78;4205902;28;5619;-60
2023/10/20 05:39:47;;;;;;;;;;;;;;;18.42;69.49;93443.34;4215664;28;5615;-61
2023/10/20 05:41:50;;;;;;;;;;;;;;;18.42;69.34;93451.34;4214516;28;5761;-60
2023/10/20 05:43:54;;;;;;;;;;;;;;;18.40;69.52;93458.91;4211873;28;5695;-61
2023/10/20 05:45:57;;;;;;;;;;;;;;;18.39;69.72;93470.72;4216695;28;5781;-61
2023/10/20 05:48:00;;;;;;;;;;;;;;;18.39;69.85;93477.97;4215262;28;5612;-61
2023/10/20 05:50:04;;;;;;;;;;;;;;;18.40;69.74;93480.31;4211676;28;5717;-61
2023/10/20 05:52:08;;;;;;;;;;;;;;;18.41;69.74;93487.22;4215093;28;5629;-61
2023/10/20 05:54:11;;;;;;;;;;;;;;;18.42;69.72;93493.34;4206610;28;5620;-62
2023/10/20 05:56:14;;;;;;;;;;;;;;;18.44;69.76;93509.88;4217596;28;5744;-62
2023/10/20 05:58:17;;;;;;;;;;;;;;;18.45;69.89;93528.25;4212531;28;5700;-62
2023/10/20 06:00:18;;;;;;;;;;;;;;;18.45;69.77;93544.31;4214787;28;5707;-63
2023/10/20 06:02:23;;;;;;;;;;;;;;;18.46;69.79;93553.94;4213149;28;5726;-62
2023/10/20 06:04:25;;;;;;;;;;;;;;;18.47;69.62;93563.53;4203368;28;5647;-61
2023/10/20 06:06:30;;;;;;;;;;;;;;;18.46;69.84;93561.94;4204673;28;5716;-62
2023/10/20 06:08:33;;;;;;;;;;;;;;;18.48;69.57;93570.44;4211336;28;5615;-62
2023/10/20 06:10:37;;;;;;;;;;;;;;;18.47;69.65;93568.88;4211113;28;5611;-62
2023/10/20 06:12:40;;;;;;;;;;;;;;;18.49;69.78;93571.22;4219348;28;5612;-62
2023/10/20 06:14:43;;;;;;;;;;;;;;;18.49;69.61;93571.22;4214252;28;5620;-62
2023/10/20 06:16:46;;;;;;;;;;;;;;;18.49;69.85;93589.94;4206501;28;5620;-60
2023/10/20 06:18:50;;;;;;;;;;;;;;;18.48;69.66;93626.59;4207109;28;5706;-61
2023/10/20 06:20:53;;;;;;;;;;;;;;;18.48;69.95;93634.63;4212351;28;5635;-61
2023/10/20 06:22:56;;;;;;;;;;;;;;;18.45;70.02;93642.47;4210928;28;5706;-61
2023/10/20 06:24:59;;;;;;;;;;;;;;;18.42;70.14;93640.47;4216188;28;5626;-61
2023/10/20 06:27:03;;;;;;;;;;;;;;;18.40;69.91;93638.09;4219597;28;5128;-61
2023/10/20 06:29:21;;;;;;;;;;;;;;;18.40;70.22;93640.00;4215682;28;5703;-61
2023/10/20 06:31:41;;;;;;;;;;;;;;;18.40;70.21;93648.00;4218140;28;5604;-61
2023/10/20 06:33:45;;;;;;;;;;;;;;;18.38;70.21;93658.25;4212841;28;5914;-61
2023/10/20 06:35:52;;;;;;;;;;;;;;;18.37;70.51;93662.03;4209798;28;5830;-61
2023/10/20 06:37:57;;;;;;;;;;;;;;;18.38;70.36;93664.38;4211085;28;5611;-61
2023/10/20 06:40:00;;;;;;;;;;;;;;;18.39;70.72;93657.94;4213262;28;5710;-61
2023/10/20 06:42:03;;;;;;;;;;;;;;;18.39;70.74;93655.25;4214373;28;5861;-61
2023/10/20 06:44:06;;;;;;;;;;;;;;;18.38;70.87;93664.38;4213218;28;6788;-61
2023/10/20 06:46:09;;;;;;;;;;;;;;;18.38;70.67;93672.41;4207878;28;5703;-61
2023/10/20 06:48:14;;;;;;;;;;;;;;;18.38;70.68;93660.94;4215014;28;5627;-61
2023/10/20 06:50:17;;;;;;;;;;;;;;;18.37;70.41;93673.50;4211721;28;5604;-61
2023/10/20 06:52:21;;;;;;;;;;;;;;;18.37;70.58;93689.56;4214295;28;5738;-61
2023/10/20 06:54:24;;;;;;;;;;;;;;;18.38;70.75;93687.66;4217868;28;5210;-61
2023/10/20 06:56:27;;;;;;;;;;;;;;;18.37;70.66;93694.91;4218293;28;5612;-61
2023/10/20 06:58:30;;;;;;;;;;;;;;;18.38;70.63;93687.66;4216642;28;5705;-61
2023/10/20 07:00:34;;;;;;;;;;;;;;;18.39;70.55;93697.25;4212087;28;5686;-61
2023/10/20 07:02:37;;;;;;;;;;;;;;;18.39;70.42;93697.25;4209096;28;5737;-61
2023/10/20 07:04:41;;;;;;;;;;;;;;;18.36;70.56;93703.25;4214150;28;5620;-61
2023/10/20 07:06:44;;;;;;;;;;;;;;;18.34;70.12;93706.22;4209770;28;5683;-61
2023/10/20 07:08:50;;;;;;;;;;;;;;;18.30;69.76;93711.41;4209542;28;5608;-61
2023/10/20 07:10:52;;;;;;;;;;;;;;;18.28;69.67;93720.88;4208362;28;5680;-61
2023/10/20 07:12:55;;;;;;;;;;;;;;;18.26;69.97;93720.41;4217814;28;5627;-61
2023/10/20 07:14:58;;;;;;;;;;;;;;;18.28;70.09;93720.88;4206073;28;5732;-62
2023/10/20 07:17:03;;;;;;;;;;;;;;;18.30;70.00;93724.78;4214228;28;6364;-61
2023/10/20 07:19:08;;;;;;;;;;;;;;;18.31;69.39;93728.25;4204729;28;5635;-62
2023/10/20 07:21:11;;;;;;;;;;;;;;;18.30;69.51;93734.69;4208554;28;5893;-62
2023/10/20 07:23:16;;;;;;;;;;;;;;;18.26;69.09;93736.44;4213509;28;5643;-61
2023/10/20 07:25:20;;;;;;;;;;;;;;;18.24;69.36;93744.00;4216683;28;5600;-61
2023/10/20 07:27:23;;;;;;;;;;;;;;;18.22;69.29;93748.84;4212749;28;5683;-61
2023/10/20 07:29:26;;;;;;;;;;;;;;;18.22;69.39;93751.53;4208890;28;5771;-61
2023/10/20 07:31:29;;;;;;;;;;;;;;;18.24;69.23;93765.38;4210244;28;5643;-62
2023/10/20 07:33:32;;;;;;;;;;;;;;;18.24;68.99;93766.16;4202554;28;6291;-61
2023/10/20 07:35:39;;;;;;;;;;;;;;;18.25;69.02;93767.75;4209777;28;5643;-61
2023/10/20 07:37:43;;;;;;;;;;;;;;;18.27;69.14;93775.44;4218387;28;5651;-61
2023/10/20 07:39:46;;;;;;;;;;;;;;;18.27;68.92;93781.56;4210583;28;5724;-62
2023/10/20 07:41:50;;;;;;;;;;;;;;;18.26;68.68;93785.34;4205053;28;5739;-61
2023/10/20 07:43:53;;;;;;;;;;;;;;;18.27;68.76;93778.13;4209447;28;5605;-61
2023/10/20 07:45:56;;;;;;;;;;;;;;;18.27;68.86;93786.94;4214678;28;5108;-61
2023/10/20 07:47:59;;;;;;;;;;;;;;;18.28;68.62;93791.16;4213745;28;5718;-61
2023/10/20 07:50:04;;;;;;;;;;;;;;;18.29;68.38;93789.28;4201861;28;5690;-61
2023/10/20 07:52:07;;;;;;;;;;;;;;;18.29;68.56;93794.63;4214652;28;5635;-61
2023/10/20 07:54:09;;;;;;;;;;;;;;;18.30;68.44;93799.66;4204328;28;5718;-61
2023/10/20 07:56:12;;;;;;;;;;;;;;;18.32;68.47;93792.09;4210774;28;5640;-61
2023/10/20 07:58:16;;;;;;;;;;;;;;;18.33;68.37;93806.25;4201026;28;5758;-61
2023/10/20 08:00:19;;;;;;;;;;;;;;;18.34;68.12;93799.81;4206815;28;5733;-61
2023/10/20 08:02:23;;;;;;;;;;;;;;;18.35;68.38;93804.09;4204990;28;5619;-61
2023/10/20 08:04:27;;;;;;;;;;;;;;;18.36;68.47;93794.97;4216632;28;6321;-61
2023/10/20 08:06:30;;;;;;;;;;;;;;;18.36;68.45;93800.31;4209159;28;5697;-61
2023/10/20 08:08:33;;;;;;;;;;;;;;;18.38;68.06;93808.81;4209187;28;5755;-61
2023/10/20 08:10:37;;;;;;;;;;;;;;;18.37;68.38;93814.47;4217799;28;5640;-61
2023/10/20 08:12:40;;;;;;;;;;;;;;;18.38;68.16;93811.47;4216649;28;5659;-61
2023/10/20 08:14:44;;;;;;;;;;;;;;;18.39;68.00;93810.38;4202755;28;6117;-61
2023/10/20 08:16:49;;;;;;;;;;;;;;;18.39;68.15;93818.41;4205289;28;6337;-61
2023/10/20 08:18:52;;;;;;;;;;;;;;;18.39;67.92;93821.06;4213439;28;5619;-61
2023/10/20 08:21:02;;;;;;;;;;;;;;;18.39;68.00;93826.41;4195484;28;5711;-61
2023/10/20 08:23:05;;;;;;;;;;;;;;;18.39;67.94;93826.41;4214059;28;5730;-61
2023/10/20 08:25:08;;;;;;;;;;;;;;;18.41;68.01;93831.44;4215432;28;5616;-61
2023/10/20 08:27:12;;;;;;;;;;;;;;;18.39;68.14;93837.13;4203532;28;6134;-61
2023/10/20 08:29:16;;;;;;;;;;;;;;;18.41;68.26;93834.91;4217481;28;5715;-61
2023/10/20 08:31:21;;;;;;;;;;;;;;;18.40;68.06;93852.06;4217144;28;5617;-61
2023/10/20 08:33:25;;;;;;;;;;;;;;;18.41;68.11;93856.31;4217662;28;5703;-61
2023/10/20 08:35:30;;;;;;;;;;;;;;;18.41;67.89;93856.31;4208904;28;5154;-63
2023/10/20 08:37:33;;;;;;;;;;;;;;;18.41;68.07;93858.97;4210258;28;5604;-64
2023/10/20 08:39:36;;;;;;;;;;;;;;;18.40;68.11;93865.44;4204185;28;5714;-63
2023/10/20 08:41:38;;;;;;;;;;;;;;;18.40;68.09;93864.66;4207799;28;5639;-64
2023/10/20 08:43:43;;;;;;;;;;;;;;;18.39;67.91;93869.22;4211951;28;5711;-64
2023/10/20 08:45:46;;;;;;;;;;;;;;;18.37;67.88;93871.41;4213136;28;5136;-64
2023/10/20 08:47:51;;;;;;;;;;;;;;;18.36;68.10;93874.41;4207844;28;5726;-64
2023/10/20 08:49:54;;;;;;;;;;;;;;;18.37;67.90;93879.44;4211184;28;5699;-62
2023/10/20 08:52:02;;;;;;;;;;;;;;;18.37;67.94;93882.09;4208799;28;5743;-64
2023/10/20 08:54:08;;;;;;;;;;;;;;;18.38;67.93;93896.28;4209429;28;5718;-64
2023/10/20 08:56:12;;;;;;;;;;;;;;;18.39;68.16;93884.47;4213834;28;5635;-65
2023/10/20 08:58:17;;;;;;;;;;;;;;;18.39;68.24;93890.59;4214547;28;5915;-64
2023/10/20 09:00:21;;;;;;;;;;;;;;;18.42;68.11;93892.66;4210334;28;7736;-64
2023/10/20 09:02:25;;;;;;;;;;;;;;;18.43;68.15;93885.41;4214217;28;5758;-64
2023/10/20 09:04:29;;;;;;;;;;;;;;;18.45;68.17;93905.38;4207908;28;5631;-65
2023/10/20 09:06:32;;;;;;;;;;;;;;;18.46;67.90;93907.00;4199851;28;5654;-64
2023/10/20 09:08:35;;;;;;;;;;;;;;;18.47;68.09;93911.25;4207755;28;5690;-60
2023/10/20 09:10:42;;;;;;;;;;;;;;;18.49;68.00;93919.72;4215505;28;5624;-60
2023/10/20 09:12:45;;;;;;;;;;;;;;;18.50;67.98;93920.53;4209963;28;5604;-64
2023/10/20 09:14:48;;;;;;;;;;;;;;;18.51;68.02;93930.13;4217517;28;5715;-71
2023/10/20 09:16:53;;;;;;;;;;;;;;;18.52;68.03;93932.47;4209486;28;6515;-71
2023/10/20 09:18:56;;;;;;;;;;;;;;;18.52;67.97;93937.03;4215447;28;5826;-71
2023/10/20 09:21:04;;;;;;;;;;;;;;;18.50;68.02;93929.34;4218894;28;7071;-70
2023/10/20 09:23:11;;;;;;;;;;;;;;;18.49;67.86;93938.47;4217648;28;5620;-70
2023/10/20 09:25:16;;;;;;;;;;;;;;;18.51;67.58;93943.50;4218342;28;5620;-68
2023/10/20 09:27:19;;;;;;;;;;;;;;;18.50;67.80;93945.38;4218667;28;5612;-70
2023/10/20 09:29:23;;;;;;;;;;;;;;;18.47;67.42;93946.00;4212767;28;5616;-70
2023/10/20 09:31:27;;;;;;;;;;;;;;;18.48;67.06;93946.78;4213670;28;5864;-70
2023/10/20 09:33:31;;;;;;;;;;;;;;;18.46;67.41;93952.47;4211618;28;5687;-69
2023/10/20 09:35:39;;;;;;;;;;;;;;;18.42;67.02;93948.81;4203485;28;5109;-70
2023/10/20 09:37:44;;;;;;;;;;;;;;;18.39;66.82;93957.47;4210470;28;5646;-79
2023/10/20 09:39:48;;;;;;;;;;;;;;;18.38;66.83;93953.22;4201918;28;5682;-63
2023/10/20 09:41:53;;;;;;;;;;;;;;;18.37;66.69;93959.66;4216885;28;5762;-63
2023/10/20 09:44:05;;;;;;;;;;;;;;;18.37;66.81;93958.88;4214246;28;5781;-63
2023/10/20 09:46:21;;;;;;;;;;;;;;;18.35;66.62;93967.22;4211003;28;5699;-63
2023/10/20 09:48:25;;;;;;;;;;;;;;;18.34;66.50;93977.09;4214724;28;5699;-63
2023/10/20 09:50:31;;;;;;;;;;;;;;;18.33;66.26;93977.41;4216462;28;6438;-63
2023/10/20 09:52:35;;;;;;;;;;;;;;;18.33;66.31;93982.75;4218620;28;5699;-64
2023/10/20 09:54:40;;;;;;;;;;;;;;;18.32;65.94;93986.53;4210018;28;5627;-63
2023/10/20 09:56:45;;;;;;;;;;;;;;;18.34;66.09;93984.34;4207283;28;5709;-68
2023/10/20 09:58:48;;;;;;;;;;;;;;;18.32;65.63;93989.22;4213326;28;5789;-66
2023/10/20 10:00:52;;;;;;;;;;;;;;;18.32;65.92;94005.25;4211720;28;5698;-67
2023/10/20 10:02:58;;;;;;;;;;;;;;;18.33;65.75;94014.84;4202442;28;5639;-67
2023/10/20 10:05:02;;;;;;;;;;;;;;;18.34;65.87;94016.44;4206529;28;5612;-70
2023/10/20 10:07:07;;;;;;;;;;;;;;;18.38;66.22;94025.44;4209059;28;5616;-70
2023/10/20 10:09:10;;;;;;;;;;;;;;;18.38;66.51;94028.09;4216763;28;5711;-67
2023/10/20 10:11:26;;;;;;;;;;;;;;;18.40;66.38;94041.16;4211045;28;5750;-68
2023/10/20 10:13:35;;;;;;;;;;;;;;;18.40;66.72;94047.31;4216433;28;5726;-73
2023/10/20 10:15:39;;;;;;;;;;;;;;;18.39;66.82;94040.38;4214455;28;5612;-73
2023/10/20 10:17:46;;;;;;;;;;;;;;;18.40;66.92;94055.31;4210947;28;5976;-67
2023/10/20 10:19:50;;;;;;;;;;;;;;;18.39;67.17;94050.28;4217671;28;7578;-69
2023/10/20 10:21:57;;;;;;;;;;;;;;;18.37;67.06;94063.97;4210169;28;5628;-67
2023/10/20 10:24:18;;;;;;;;;;;;;;;18.32;66.62;94072.91;4209703;28;5823;-63
2023/10/20 10:26:28;;;;;;;;;;;;;;;18.28;66.56;94076.50;4217823;28;5625;-63
2023/10/20 10:28:31;;;;;;;;;;;;;;;18.24;66.46;94070.22;4213773;28;5631;-63
2023/10/20 10:30:34;;;;;;;;;;;;;;;18.23;66.39;94076.63;4207212;28;7786;-63
2023/10/20 10:32:47;;;;;;;;;;;;;;;18.22;66.59;94085.75;4217911;28;5616;-63
2023/10/20 10:34:51;;;;;;;;;;;;;;;18.22;65.97;94080.41;4208046;28;5861;-63
2023/10/20 10:36:59;;;;;;;;;;;;;;;18.19;66.21;94073.00;4201232;28;5725;-63
2023/10/20 10:39:01;;;;;;;;;;;;;;;18.15;65.84;94072.84;4206036;28;5723;-63
2023/10/20 10:41:04;;;;;;;;;;;;;;;18.14;66.16;94076.59;4212730;28;5642;-63
2023/10/20 10:43:14;;;;;;;;;;;;;;;18.14;66.06;94071.25;4204208;28;5733;-63
2023/10/20 10:45:23;;;;;;;;;;;;;;;18.14;65.79;94083.84;4215445;28;5679;-63
2023/10/20 10:47:26;;;;;;;;;;;;;;;18.14;65.92;94091.84;4201519;28;5734;-63
2023/10/20 10:49:28;;;;;;;;;;;;;;;18.14;65.73;94087.28;4215968;28;5616;-63
2023/10/20 10:51:30;;;;;;;;;;;;;;;18.17;65.59;94089.34;4216610;28;5742;-64
2023/10/20 10:53:33;;;;;;;;;;;;;;;18.21;65.26;94086.84;4208433;28;5721;-63
2023/10/20 10:55:37;;;;;;;;;;;;;;;18.22;65.65;94088.41;4209469;28;5759;-63
2023/10/20 10:57:40;;;;;;;;;;;;;;;18.24;65.28;94086.25;4209346;28;5631;-63
2023/10/20 10:59:44;;;;;;;;;;;;;;;18.24;65.14;94081.69;4208439;28;5777;-64
2023/10/20 11:01:48;;;;;;;;;;;;;;;18.28;64.98;94087.22;4206335;28;5706;-64
2023/10/20 11:03:50;;;;;;;;;;;;;;;18.30;65.24;94077.00;4216012;28;6516;-63
2023/10/20 11:05:53;;;;;;;;;;;;;;;18.33;64.87;94079.03;4208960;28;5767;-63
2023/10/20 11:08:01;;;;;;;;;;;;;;;18.34;64.81;94073.38;4215851;28;5789;-63
2023/10/20 11:10:06;;;;;;;;;;;;;;;18.39;64.79;94077.03;4216731;28;5607;-63
2023/10/20 11:12:10;;;;;;;;;;;;;;;18.38;64.97;94080.81;4215572;28;5645;-63
2023/10/20 11:14:13;;;;;;;;;;;;;;;18.40;64.84;94084.75;4211116;28;5718;-65
2023/10/20 11:16:18;;;;;;;;;;;;;;;18.40;65.01;94074.06;4214374;28;5621;-63
2023/10/20 11:18:21;;;;;;;;;;;;;;;18.41;64.79;94070.28;4209845;28;5754;-63
2023/10/20 11:20:24;;;;;;;;;;;;;;;18.40;64.60;94055.31;4215707;28;5698;-63